EDW94HB LSZH-OOMS
Flight info
| Callsign | EDW94HB |
|---|---|
| Flight time | N/A |
| Altitude | 35000 |
| Route | DEGES Z2 TUNUM Z204 GEDSO DCT VEKEN/N0470F370 DCT DARZA DCT PINDO/N0464F390 DCT PAXIS Y707 OBRAN L321 REXUM M872 MEDRO/N0469F410 M872 GOKSA Y214 RAPMA DCT MEVDO DCT ALROK DCT DEBIN DCT MIDGU M717 PUTSO N685 LAKLU G216 MCT |
| Aircraft | A343/H-SDE2E3FGHIJ4J5M1RWXY/LB1D1 |
Departure
| Time | 2026-05-08 06:13 |
|---|---|
| Airport | Zürich Airport (LSZH) |
Arrival
| Time | N/A |
|---|---|
| Airport | Muscat International Airport (OOMS) |
| Time | Latitude | Longitude | Altitude | Speed | Heading |
|---|---|---|---|---|---|
| 2026-05-08 05:56 | 47.46163 | 8.55683 | 1405 ft | 0 kts | 186° |
| 2026-05-08 06:01 | 47.46168 | 8.55684 | 1411 ft | 4 kts | 185° |
| 2026-05-08 06:01 | 47.46195 | 8.55685 | 1405 ft | 4 kts | 175° |
| 2026-05-08 06:02 | 47.46222 | 8.55678 | 1411 ft | 4 kts | 158° |
| 2026-05-08 06:02 | 47.46242 | 8.55658 | 1413 ft | 4 kts | 114° |
| 2026-05-08 06:02 | 47.46245 | 8.55646 | 1403 ft | 0 kts | 96° |
| 2026-05-08 06:02 | 47.46246 | 8.55645 | 1408 ft | 0 kts | 96° |
| 2026-05-08 06:08 | 47.46243 | 8.55679 | 1405 ft | 7 kts | 96° |
| 2026-05-08 06:08 | 47.46235 | 8.55784 | 1410 ft | 13 kts | 96° |
| 2026-05-08 06:08 | 47.46226 | 8.55926 | 1413 ft | 15 kts | 97° |
| 2026-05-08 06:09 | 47.46167 | 8.56051 | 1419 ft | 14 kts | 136° |
| 2026-05-08 06:09 | 47.46097 | 8.56148 | 1416 ft | 13 kts | 137° |
| 2026-05-08 06:09 | 47.46032 | 8.56236 | 1420 ft | 12 kts | 138° |
| 2026-05-08 06:09 | 47.45974 | 8.56313 | 1423 ft | 11 kts | 137° |
| 2026-05-08 06:10 | 47.45913 | 8.56397 | 1422 ft | 12 kts | 137° |
| 2026-05-08 06:10 | 47.45847 | 8.56485 | 1424 ft | 13 kts | 138° |
| 2026-05-08 06:10 | 47.45799 | 8.56588 | 1425 ft | 13 kts | 103° |
| 2026-05-08 06:10 | 47.45789 | 8.56720 | 1426 ft | 13 kts | 96° |
| 2026-05-08 06:11 | 47.45780 | 8.56844 | 1425 ft | 11 kts | 96° |
| 2026-05-08 06:11 | 47.45772 | 8.56947 | 1427 ft | 9 kts | 96° |
| 2026-05-08 06:11 | 47.45743 | 8.57019 | 1428 ft | 8 kts | 146° |
| 2026-05-08 06:11 | 47.45691 | 8.57033 | 1428 ft | 8 kts | 184° |
| 2026-05-08 06:12 | 47.45663 | 8.57011 | 1428 ft | 4 kts | 228° |
| 2026-05-08 06:12 | 47.45665 | 8.56968 | 1427 ft | 11 kts | 274° |
| 2026-05-08 06:12 | 47.45689 | 8.56631 | 1423 ft | 64 kts | 277° |
| 2026-05-08 06:12 | 47.45759 | 8.55674 | 1409 ft | 121 kts | 276° |
| 2026-05-08 06:13 | 47.45860 | 8.54190 | 1470 ft | 160 kts | 276° |
| 2026-05-08 06:13 | 47.45948 | 8.52658 | 2271 ft | 143 kts | 275° |
| 2026-05-08 06:13 | 47.46016 | 8.51084 | 2632 ft | 166 kts | 274° |
| 2026-05-08 06:13 | 47.46011 | 8.49236 | 2852 ft | 193 kts | 261° |
| 2026-05-08 06:14 | 47.45415 | 8.47386 | 3236 ft | 209 kts | 229° |
| 2026-05-08 06:14 | 47.44417 | 8.45694 | 3695 ft | 227 kts | 230° |
| 2026-05-08 06:14 | 47.43459 | 8.43767 | 4322 ft | 239 kts | 243° |
| 2026-05-08 06:14 | 47.42992 | 8.41394 | 5094 ft | 243 kts | 255° |
| 2026-05-08 06:15 | 47.42068 | 8.39381 | 5892 ft | 243 kts | 211° |
| 2026-05-08 06:15 | 47.40453 | 8.38919 | 6794 ft | 245 kts | 170° |
| 2026-05-08 06:15 | 47.38932 | 8.40185 | 7210 ft | 269 kts | 131° |
| 2026-05-08 06:15 | 47.38243 | 8.42820 | 7683 ft | 288 kts | 90° |
| 2026-05-08 06:16 | 47.38835 | 8.45634 | 8451 ft | 293 kts | 52° |
| 2026-05-08 06:16 | 47.40287 | 8.47733 | 9239 ft | 295 kts | 40° |
| 2026-05-08 06:16 | 47.41834 | 8.49759 | 9999 ft | 300 kts | 40° |
| 2026-05-08 06:16 | 47.43447 | 8.51783 | 10533 ft | 311 kts | 39° |
| 2026-05-08 06:17 | 47.45844 | 8.57337 | 11141 ft | 345 kts | 80° |
| 2026-05-08 06:17 | 47.46083 | 8.60944 | 11451 ft | 360 kts | 88° |
| 2026-05-08 06:17 | 47.46178 | 8.64722 | 11786 ft | 374 kts | 89° |
| 2026-05-08 06:18 | 47.46277 | 8.68608 | 12303 ft | 382 kts | 88° |
| 2026-05-08 06:18 | 47.46399 | 8.72519 | 12911 ft | 387 kts | 88° |
| 2026-05-08 06:18 | 47.46532 | 8.76508 | 13575 ft | 391 kts | 87° |
| 2026-05-08 06:18 | 47.46652 | 8.80542 | 14185 ft | 395 kts | 90° |
| 2026-05-08 06:19 | 47.46401 | 8.84540 | 14746 ft | 399 kts | 100° |
| 2026-05-08 06:19 | 47.45841 | 8.88597 | 15341 ft | 403 kts | 103° |
| 2026-05-08 06:19 | 47.45236 | 8.92660 | 15942 ft | 406 kts | 103° |
| 2026-05-08 06:19 | 47.44640 | 8.96753 | 16545 ft | 410 kts | 102° |
| 2026-05-08 06:20 | 47.44043 | 9.00902 | 17117 ft | 413 kts | 102° |
| 2026-05-08 06:20 | 47.43445 | 9.05081 | 17703 ft | 417 kts | 102° |
| 2026-05-08 06:20 | 47.42843 | 9.09242 | 18273 ft | 420 kts | 103° |
| 2026-05-08 06:20 | 47.42228 | 9.13480 | 18785 ft | 424 kts | 103° |
| 2026-05-08 06:21 | 47.41695 | 9.17801 | 19274 ft | 428 kts | 97° |
| 2026-05-08 06:21 | 47.41665 | 9.22230 | 19748 ft | 433 kts | 84° |
| 2026-05-08 06:21 | 47.41877 | 9.24686 | 20017 ft | 435 kts | 81° |
| 2026-05-08 06:21 | 47.42184 | 9.27288 | 20251 ft | 439 kts | 79° |
| 2026-05-08 06:22 | 47.42748 | 9.31741 | 20673 ft | 440 kts | 79° |
| 2026-05-08 06:22 | 47.43313 | 9.36206 | 21098 ft | 442 kts | 79° |
| 2026-05-08 06:22 | 47.43873 | 9.40631 | 21553 ft | 444 kts | 79° |
| 2026-05-08 06:22 | 47.44447 | 9.45167 | 22000 ft | 447 kts | 79° |
| 2026-05-08 06:23 | 47.45020 | 9.49700 | 22455 ft | 451 kts | 80° |
| 2026-05-08 06:23 | 47.45595 | 9.54264 | 22917 ft | 453 kts | 81° |
| 2026-05-08 06:23 | 47.45824 | 9.58861 | 23323 ft | 456 kts | 91° |
| 2026-05-08 06:23 | 47.45697 | 9.63560 | 23677 ft | 460 kts | 95° |
| 2026-05-08 06:24 | 47.45408 | 9.68281 | 23979 ft | 464 kts | 97° |
| 2026-05-08 06:24 | 47.45043 | 9.73044 | 24303 ft | 467 kts | 98° |
| 2026-05-08 06:24 | 47.44657 | 9.77832 | 24646 ft | 470 kts | 98° |
| 2026-05-08 06:24 | 47.44275 | 9.82655 | 24990 ft | 474 kts | 98° |
| 2026-05-08 06:25 | 47.43904 | 9.87505 | 25298 ft | 477 kts | 98° |
| 2026-05-08 06:25 | 47.43546 | 9.92359 | 25628 ft | 480 kts | 97° |
| 2026-05-08 06:25 | 47.43192 | 9.97286 | 25960 ft | 483 kts | 97° |
| 2026-05-08 06:25 | 47.42838 | 10.02245 | 26268 ft | 485 kts | 97° |
| 2026-05-08 06:26 | 47.42483 | 10.07223 | 26518 ft | 490 kts | 97° |
| 2026-05-08 06:26 | 47.42122 | 10.12261 | 26810 ft | 493 kts | 98° |
| 2026-05-08 06:26 | 47.41757 | 10.17320 | 27123 ft | 496 kts | 98° |
| 2026-05-08 06:26 | 47.41411 | 10.22350 | 27415 ft | 498 kts | 97° |
| 2026-05-08 06:27 | 47.41110 | 10.27473 | 27723 ft | 501 kts | 96° |
| 2026-05-08 06:27 | 47.40833 | 10.32614 | 28011 ft | 504 kts | 96° |
| 2026-05-08 06:27 | 47.40559 | 10.37748 | 28309 ft | 506 kts | 96° |
| 2026-05-08 06:27 | 47.40278 | 10.42943 | 28589 ft | 508 kts | 96° |
| 2026-05-08 06:28 | 47.39878 | 10.48149 | 28766 ft | 511 kts | 101° |
| 2026-05-08 06:28 | 47.39256 | 10.53347 | 29048 ft | 513 kts | 103° |
| 2026-05-08 06:28 | 47.38582 | 10.58528 | 29350 ft | 515 kts | 103° |
| 2026-05-08 06:28 | 47.37882 | 10.63644 | 29723 ft | 515 kts | 104° |
| 2026-05-08 06:29 | 47.37156 | 10.68825 | 30076 ft | 515 kts | 104° |
| 2026-05-08 06:29 | 47.36425 | 10.74002 | 30379 ft | 515 kts | 104° |
| 2026-05-08 06:29 | 47.35693 | 10.79181 | 30785 ft | 513 kts | 104° |
| 2026-05-08 06:29 | 47.34966 | 10.84324 | 31206 ft | 509 kts | 104° |
| 2026-05-08 06:30 | 47.34244 | 10.89436 | 31518 ft | 509 kts | 104° |
| 2026-05-08 06:30 | 47.33520 | 10.94552 | 31829 ft | 508 kts | 104° |
| 2026-05-08 06:30 | 47.32801 | 10.99599 | 32183 ft | 506 kts | 104° |
| 2026-05-08 06:30 | 47.32074 | 11.04702 | 32509 ft | 505 kts | 105° |
| 2026-05-08 06:31 | 47.31361 | 11.09712 | 32841 ft | 504 kts | 105° |
| 2026-05-08 06:31 | 47.30640 | 11.14751 | 33170 ft | 502 kts | 105° |
| 2026-05-08 06:31 | 47.29919 | 11.19785 | 33506 ft | 501 kts | 105° |
| 2026-05-08 06:31 | 47.29198 | 11.24794 | 33826 ft | 499 kts | 105° |
| 2026-05-08 06:32 | 47.28470 | 11.29822 | 34016 ft | 502 kts | 105° |
| 2026-05-08 06:32 | 47.27742 | 11.34859 | 34180 ft | 502 kts | 105° |
| 2026-05-08 06:32 | 47.27020 | 11.39830 | 34383 ft | 502 kts | 105° |
| 2026-05-08 06:32 | 47.26270 | 11.44867 | 34615 ft | 500 kts | 108° |
| 2026-05-08 06:33 | 47.25204 | 11.49705 | 34822 ft | 495 kts | 117° |
| 2026-05-08 06:33 | 47.23649 | 11.54202 | 35017 ft | 489 kts | 126° |
| 2026-05-08 06:33 | 47.19895 | 11.62589 | 35091 ft | 492 kts | 129° |
| 2026-05-08 06:34 | 47.15934 | 11.70787 | 35093 ft | 492 kts | 130° |
| 2026-05-08 06:34 | 47.11963 | 11.78943 | 35089 ft | 492 kts | 130° |
| 2026-05-08 06:35 | 47.08112 | 11.87271 | 35088 ft | 497 kts | 123° |
| 2026-05-08 06:35 | 47.04923 | 11.96278 | 35085 ft | 499 kts | 121° |
| 2026-05-08 06:36 | 47.01867 | 12.05420 | 35084 ft | 499 kts | 120° |
| 2026-05-08 06:36 | 46.98845 | 12.14518 | 35081 ft | 499 kts | 120° |
| 2026-05-08 06:37 | 46.95776 | 12.23675 | 35122 ft | 499 kts | 120° |
| 2026-05-08 06:37 | 46.92716 | 12.32737 | 35111 ft | 499 kts | 121° |
| 2026-05-08 06:38 | 46.89612 | 12.41882 | 35127 ft | 501 kts | 121° |
| 2026-05-08 06:38 | 46.86523 | 12.50947 | 35115 ft | 501 kts | 121° |
| 2026-05-08 06:39 | 46.83405 | 12.60075 | 35107 ft | 501 kts | 121° |
| 2026-05-08 06:39 | 46.80272 | 12.69213 | 35087 ft | 501 kts | 121° |
| 2026-05-08 06:40 | 46.77149 | 12.78292 | 35077 ft | 503 kts | 121° |
| 2026-05-08 06:40 | 46.73993 | 12.87433 | 35066 ft | 504 kts | 121° |
| 2026-05-08 06:41 | 46.70847 | 12.96521 | 35062 ft | 504 kts | 121° |
| 2026-05-08 06:41 | 46.67677 | 13.05649 | 35062 ft | 504 kts | 122° |
| 2026-05-08 06:42 | 46.64512 | 13.14713 | 35063 ft | 506 kts | 122° |
| 2026-05-08 06:42 | 46.61309 | 13.23864 | 35051 ft | 507 kts | 122° |
| 2026-05-08 06:43 | 46.58112 | 13.32970 | 35071 ft | 507 kts | 122° |
| 2026-05-08 06:43 | 46.56301 | 13.37361 | 35301 ft | 499 kts | 131° |
| 2026-05-08 06:43 | 46.54149 | 13.41275 | 35621 ft | 491 kts | 136° |
| 2026-05-08 06:44 | 46.51901 | 13.45004 | 35827 ft | 490 kts | 137° |
| 2026-05-08 06:44 | 46.49626 | 13.48629 | 35948 ft | 491 kts | 138° |
| 2026-05-08 06:44 | 46.47302 | 13.52251 | 36196 ft | 489 kts | 138° |
| 2026-05-08 06:44 | 46.44978 | 13.55844 | 36468 ft | 487 kts | 138° |
| 2026-05-08 06:45 | 46.42654 | 13.59429 | 36680 ft | 487 kts | 138° |
| 2026-05-08 06:45 | 46.40335 | 13.63011 | 36921 ft | 486 kts | 138° |
| 2026-05-08 06:45 | 46.38020 | 13.66594 | 37061 ft | 487 kts | 137° |
| 2026-05-08 06:45 | 46.35693 | 13.70194 | 37075 ft | 488 kts | 137° |
| 2026-05-08 06:46 | 46.31393 | 13.76855 | 37074 ft | 485 kts | 137° |
| 2026-05-08 06:46 | 46.26769 | 13.84003 | 37071 ft | 485 kts | 137° |
| 2026-05-08 06:47 | 46.22152 | 13.91123 | 37070 ft | 485 kts | 137° |
| 2026-05-08 06:47 | 46.17559 | 13.98187 | 37068 ft | 485 kts | 137° |
| 2026-05-08 06:48 | 46.12932 | 14.05282 | 37056 ft | 485 kts | 138° |
| 2026-05-08 06:48 | 46.08284 | 14.12389 | 37072 ft | 485 kts | 138° |
| 2026-05-08 06:49 | 46.03669 | 14.19430 | 37087 ft | 484 kts | 138° |
| 2026-05-08 06:49 | 45.99033 | 14.26484 | 37095 ft | 484 kts | 138° |
| 2026-05-08 06:50 | 45.94404 | 14.33506 | 37089 ft | 484 kts | 138° |
| 2026-05-08 06:50 | 45.89788 | 14.40490 | 37097 ft | 484 kts | 138° |
| 2026-05-08 06:51 | 45.85131 | 14.47520 | 37094 ft | 485 kts | 138° |
| 2026-05-08 06:51 | 45.80466 | 14.54545 | 37074 ft | 485 kts | 139° |
| 2026-05-08 06:52 | 45.75811 | 14.61535 | 37092 ft | 485 kts | 139° |
| 2026-05-08 06:52 | 45.71172 | 14.68488 | 37086 ft | 485 kts | 139° |
| 2026-05-08 06:53 | 45.66490 | 14.75483 | 37087 ft | 486 kts | 139° |
| 2026-05-08 06:53 | 45.61801 | 14.82469 | 37086 ft | 486 kts | 139° |
| 2026-05-08 06:54 | 45.57123 | 14.89422 | 37082 ft | 484 kts | 139° |
| 2026-05-08 06:54 | 45.52483 | 14.96303 | 37079 ft | 482 kts | 139° |
| 2026-05-08 06:55 | 45.47808 | 15.03173 | 37084 ft | 482 kts | 140° |
| 2026-05-08 06:55 | 45.43755 | 15.08616 | 37087 ft | 480 kts | 142° |
| 2026-05-08 06:56 | 45.38815 | 15.15006 | 37086 ft | 480 kts | 143° |
| 2026-05-08 06:56 | 45.33886 | 15.21426 | 37082 ft | 480 kts | 142° |
| 2026-05-08 06:57 | 45.28986 | 15.27866 | 37087 ft | 479 kts | 142° |
| 2026-05-08 06:57 | 45.24132 | 15.34257 | 37090 ft | 478 kts | 142° |
| 2026-05-08 06:58 | 45.19241 | 15.40680 | 37083 ft | 478 kts | 142° |
| 2026-05-08 06:58 | 45.14380 | 15.47047 | 37083 ft | 478 kts | 142° |
| 2026-05-08 06:59 | 45.09492 | 15.53432 | 37062 ft | 478 kts | 142° |
| 2026-05-08 06:59 | 45.04592 | 15.59816 | 37078 ft | 478 kts | 142° |
| 2026-05-08 07:00 | 44.99693 | 15.66185 | 37078 ft | 478 kts | 142° |
| 2026-05-08 07:00 | 44.94783 | 15.72552 | 37077 ft | 478 kts | 142° |
| 2026-05-08 07:01 | 44.89903 | 15.78864 | 37071 ft | 478 kts | 142° |
| 2026-05-08 07:01 | 44.84981 | 15.85216 | 37066 ft | 478 kts | 142° |
| 2026-05-08 07:02 | 44.80077 | 15.91527 | 37083 ft | 479 kts | 142° |
| 2026-05-08 07:02 | 44.75162 | 15.97837 | 37062 ft | 479 kts | 142° |
| 2026-05-08 07:03 | 44.70232 | 16.04153 | 37064 ft | 479 kts | 142° |
| 2026-05-08 07:03 | 44.65289 | 16.10471 | 37073 ft | 479 kts | 142° |
| 2026-05-08 07:04 | 44.60373 | 16.16740 | 37060 ft | 479 kts | 142° |
| 2026-05-08 07:04 | 44.55432 | 16.23024 | 37060 ft | 478 kts | 142° |
| 2026-05-08 07:05 | 44.50527 | 16.29249 | 37062 ft | 477 kts | 142° |
| 2026-05-08 07:05 | 44.45593 | 16.35494 | 37049 ft | 478 kts | 142° |
| 2026-05-08 07:06 | 44.40658 | 16.41726 | 37053 ft | 477 kts | 142° |
| 2026-05-08 07:06 | 44.35719 | 16.47947 | 37053 ft | 477 kts | 142° |
| 2026-05-08 07:07 | 44.30803 | 16.54127 | 37050 ft | 476 kts | 142° |
| 2026-05-08 07:07 | 44.25889 | 16.60288 | 37052 ft | 476 kts | 142° |
| 2026-05-08 07:08 | 44.20940 | 16.66478 | 37053 ft | 476 kts | 142° |
| 2026-05-08 07:08 | 44.16345 | 16.72212 | 37057 ft | 476 kts | 142° |
| 2026-05-08 07:09 | 44.11432 | 16.78332 | 37054 ft | 475 kts | 142° |
| 2026-05-08 07:09 | 44.06601 | 16.84335 | 37056 ft | 474 kts | 142° |
| 2026-05-08 07:10 | 44.01686 | 16.90427 | 37056 ft | 474 kts | 143° |
| 2026-05-08 07:10 | 43.96756 | 16.96524 | 37056 ft | 474 kts | 143° |
| 2026-05-08 07:11 | 43.91852 | 17.02575 | 37055 ft | 474 kts | 143° |
| 2026-05-08 07:11 | 43.86916 | 17.08652 | 37052 ft | 472 kts | 143° |
| 2026-05-08 07:12 | 43.82027 | 17.14657 | 37050 ft | 471 kts | 143° |
| 2026-05-08 07:12 | 43.77100 | 17.20692 | 37050 ft | 472 kts | 143° |
| 2026-05-08 07:13 | 43.72178 | 17.26709 | 37055 ft | 472 kts | 143° |
| 2026-05-08 07:13 | 43.67250 | 17.32721 | 37054 ft | 472 kts | 143° |
| 2026-05-08 07:14 | 43.62354 | 17.38680 | 37057 ft | 471 kts | 143° |
| 2026-05-08 07:14 | 43.57428 | 17.44663 | 37053 ft | 470 kts | 143° |
| 2026-05-08 07:15 | 43.52510 | 17.50622 | 37057 ft | 470 kts | 143° |
| 2026-05-08 07:15 | 43.47618 | 17.56536 | 37057 ft | 470 kts | 143° |
| 2026-05-08 07:16 | 43.42696 | 17.62471 | 37063 ft | 470 kts | 143° |
| 2026-05-08 07:16 | 43.37753 | 17.68418 | 37052 ft | 470 kts | 143° |
| 2026-05-08 07:17 | 43.32858 | 17.74296 | 37056 ft | 470 kts | 143° |
| 2026-05-08 07:17 | 43.27925 | 17.80206 | 37049 ft | 469 kts | 143° |
| 2026-05-08 07:18 | 43.22990 | 17.86103 | 37046 ft | 469 kts | 143° |
| 2026-05-08 07:18 | 43.18058 | 17.91987 | 37049 ft | 469 kts | 143° |
| 2026-05-08 07:19 | 43.13164 | 17.97813 | 37050 ft | 467 kts | 143° |
| 2026-05-08 07:19 | 43.08253 | 18.03644 | 37055 ft | 467 kts | 143° |
| 2026-05-08 07:20 | 43.03330 | 18.09476 | 37055 ft | 467 kts | 144° |
| 2026-05-08 07:20 | 42.98398 | 18.15305 | 37046 ft | 467 kts | 144° |
| 2026-05-08 07:21 | 42.93512 | 18.21068 | 37042 ft | 467 kts | 143° |
| 2026-05-08 07:21 | 42.88587 | 18.26866 | 37040 ft | 466 kts | 143° |
| 2026-05-08 07:22 | 42.83676 | 18.32635 | 37039 ft | 466 kts | 144° |
| 2026-05-08 07:22 | 42.78787 | 18.38362 | 37030 ft | 466 kts | 144° |
| 2026-05-08 07:23 | 42.73863 | 18.44118 | 37012 ft | 466 kts | 143° |
| 2026-05-08 07:23 | 42.68938 | 18.49865 | 37022 ft | 466 kts | 143° |
| 2026-05-08 07:24 | 42.64002 | 18.55609 | 37030 ft | 468 kts | 143° |
| 2026-05-08 07:24 | 42.59071 | 18.61339 | 37010 ft | 468 kts | 143° |
| 2026-05-08 07:25 | 42.54119 | 18.67081 | 36994 ft | 468 kts | 143° |
| 2026-05-08 07:26 | 42.46704 | 18.75654 | 37014 ft | 467 kts | 143° |
| 2026-05-08 07:26 | 42.41747 | 18.81370 | 37016 ft | 468 kts | 144° |
| 2026-05-08 07:27 | 42.36781 | 18.87083 | 37022 ft | 468 kts | 144° |
| 2026-05-08 07:27 | 42.31809 | 18.92795 | 37020 ft | 468 kts | 144° |
| 2026-05-08 07:28 | 42.26846 | 18.98481 | 37027 ft | 468 kts | 144° |
| 2026-05-08 07:28 | 42.21897 | 19.04136 | 37017 ft | 468 kts | 144° |
| 2026-05-08 07:29 | 42.16911 | 19.09822 | 37019 ft | 468 kts | 144° |
| 2026-05-08 07:29 | 42.11947 | 19.15472 | 37025 ft | 468 kts | 144° |
| 2026-05-08 07:30 | 42.06960 | 19.21136 | 37024 ft | 468 kts | 144° |
| 2026-05-08 07:30 | 42.01975 | 19.26786 | 37023 ft | 468 kts | 144° |
| 2026-05-08 07:31 | 41.97016 | 19.32394 | 37012 ft | 468 kts | 144° |
| 2026-05-08 07:31 | 41.92015 | 19.38040 | 37024 ft | 468 kts | 144° |
| 2026-05-08 07:32 | 41.87025 | 19.43661 | 37020 ft | 468 kts | 144° |
| 2026-05-08 07:32 | 41.82063 | 19.49238 | 37019 ft | 468 kts | 144° |
| 2026-05-08 07:33 | 41.77061 | 19.54847 | 37017 ft | 469 kts | 144° |
| 2026-05-08 07:33 | 41.72048 | 19.60457 | 37011 ft | 469 kts | 144° |
| 2026-05-08 07:34 | 41.67049 | 19.66041 | 37017 ft | 470 kts | 144° |
| 2026-05-08 07:34 | 41.62018 | 19.71648 | 37019 ft | 470 kts | 144° |
| 2026-05-08 07:35 | 41.56992 | 19.77236 | 37016 ft | 469 kts | 144° |
| 2026-05-08 07:35 | 41.51990 | 19.82788 | 37020 ft | 469 kts | 144° |
| 2026-05-08 07:36 | 41.46962 | 19.88355 | 37013 ft | 469 kts | 145° |
| 2026-05-08 07:36 | 41.41930 | 19.93915 | 37023 ft | 470 kts | 145° |
| 2026-05-08 07:37 | 41.36870 | 19.99496 | 37026 ft | 470 kts | 145° |
| 2026-05-08 07:37 | 41.31854 | 20.05018 | 37029 ft | 470 kts | 145° |
| 2026-05-08 07:38 | 41.26799 | 20.10571 | 37040 ft | 470 kts | 145° |
| 2026-05-08 07:38 | 41.21769 | 20.16085 | 37033 ft | 471 kts | 146° |
| 2026-05-08 07:39 | 41.17537 | 20.20714 | 37062 ft | 474 kts | 146° |
| 2026-05-08 07:39 | 41.12430 | 20.26289 | 37057 ft | 475 kts | 146° |
| 2026-05-08 07:40 | 41.07313 | 20.31864 | 37058 ft | 475 kts | 146° |
| 2026-05-08 07:40 | 41.02199 | 20.37426 | 37069 ft | 475 kts | 146° |
| 2026-05-08 07:41 | 40.97114 | 20.42947 | 37067 ft | 475 kts | 146° |
| 2026-05-08 07:41 | 40.92000 | 20.48483 | 37080 ft | 475 kts | 146° |
| 2026-05-08 07:42 | 40.86861 | 20.54035 | 37090 ft | 475 kts | 146° |
| 2026-05-08 07:42 | 40.81764 | 20.59535 | 37087 ft | 475 kts | 146° |
| 2026-05-08 07:43 | 40.76627 | 20.65065 | 37100 ft | 476 kts | 146° |
| 2026-05-08 07:43 | 40.71491 | 20.70579 | 37097 ft | 476 kts | 146° |
| 2026-05-08 07:44 | 40.66366 | 20.76071 | 37109 ft | 477 kts | 147° |
| 2026-05-08 07:44 | 40.61220 | 20.81574 | 37095 ft | 477 kts | 147° |
| 2026-05-08 07:45 | 40.56049 | 20.87094 | 37115 ft | 478 kts | 147° |
| 2026-05-08 07:45 | 40.50873 | 20.92612 | 37158 ft | 478 kts | 147° |
| 2026-05-08 07:45 | 40.48316 | 20.95331 | 37276 ft | 479 kts | 147° |
| 2026-05-08 07:46 | 40.45722 | 20.98107 | 37465 ft | 479 kts | 146° |
| 2026-05-08 07:46 | 40.43154 | 21.00909 | 37580 ft | 479 kts | 146° |
| 2026-05-08 07:46 | 40.40592 | 21.03726 | 37696 ft | 480 kts | 146° |
| 2026-05-08 07:46 | 40.38023 | 21.06556 | 37835 ft | 480 kts | 146° |
| 2026-05-08 07:47 | 40.35457 | 21.09376 | 37961 ft | 481 kts | 146° |
| 2026-05-08 07:47 | 40.32915 | 21.12162 | 38171 ft | 480 kts | 146° |
| 2026-05-08 07:47 | 40.30343 | 21.14975 | 38342 ft | 480 kts | 147° |
| 2026-05-08 07:47 | 40.27777 | 21.17773 | 38497 ft | 480 kts | 147° |
| 2026-05-08 07:48 | 40.25208 | 21.20569 | 38654 ft | 480 kts | 147° |
| 2026-05-08 07:48 | 40.22637 | 21.23364 | 38838 ft | 479 kts | 147° |
| 2026-05-08 07:48 | 40.20066 | 21.26155 | 38961 ft | 479 kts | 147° |
| 2026-05-08 07:49 | 40.14958 | 21.31692 | 39118 ft | 481 kts | 147° |
| 2026-05-08 07:49 | 40.09801 | 21.37272 | 39136 ft | 479 kts | 147° |
| 2026-05-08 07:50 | 40.04667 | 21.42821 | 39146 ft | 477 kts | 147° |
| 2026-05-08 07:50 | 39.99578 | 21.48303 | 39146 ft | 477 kts | 147° |
| 2026-05-08 07:51 | 39.94461 | 21.53805 | 39145 ft | 477 kts | 147° |
| 2026-05-08 07:51 | 39.89328 | 21.59314 | 39144 ft | 478 kts | 147° |
| 2026-05-08 07:52 | 39.84183 | 21.64824 | 39136 ft | 478 kts | 147° |
| 2026-05-08 07:52 | 39.79037 | 21.70325 | 39140 ft | 478 kts | 147° |
| 2026-05-08 07:53 | 39.73909 | 21.75796 | 39146 ft | 478 kts | 147° |
| 2026-05-08 07:53 | 39.68756 | 21.81283 | 39125 ft | 478 kts | 147° |
| 2026-05-08 07:54 | 39.63619 | 21.86740 | 39137 ft | 480 kts | 147° |
| 2026-05-08 07:54 | 39.58435 | 21.92237 | 39142 ft | 481 kts | 147° |
| 2026-05-08 07:55 | 39.53249 | 21.97728 | 39141 ft | 481 kts | 147° |
| 2026-05-08 07:55 | 39.48064 | 22.03207 | 39140 ft | 480 kts | 147° |
| 2026-05-08 07:56 | 39.42915 | 22.08636 | 39138 ft | 480 kts | 147° |
| 2026-05-08 07:56 | 39.37711 | 22.14111 | 39124 ft | 481 kts | 147° |
| 2026-05-08 07:57 | 39.32496 | 22.19583 | 39142 ft | 485 kts | 147° |
| 2026-05-08 07:57 | 39.27281 | 22.25048 | 39141 ft | 485 kts | 147° |
| 2026-05-08 07:58 | 39.22054 | 22.30518 | 39143 ft | 485 kts | 147° |
| 2026-05-08 07:58 | 39.16795 | 22.36009 | 39139 ft | 485 kts | 147° |
| 2026-05-08 07:59 | 39.11571 | 22.41451 | 39134 ft | 485 kts | 147° |
| 2026-05-08 07:59 | 39.06628 | 22.46588 | 39124 ft | 488 kts | 147° |
| 2026-05-08 08:00 | 39.01397 | 22.52025 | 39114 ft | 481 kts | 147° |
| 2026-05-08 08:00 | 38.96148 | 22.57454 | 39134 ft | 487 kts | 147° |
| 2026-05-08 08:01 | 38.90845 | 22.62930 | 39133 ft | 491 kts | 147° |
| 2026-05-08 08:01 | 38.85542 | 22.68407 | 39112 ft | 488 kts | 148° |
| 2026-05-08 08:02 | 38.80253 | 22.73857 | 39126 ft | 487 kts | 148° |
| 2026-05-08 08:02 | 38.74960 | 22.79296 | 39120 ft | 487 kts | 148° |
| 2026-05-08 08:03 | 38.69640 | 22.84744 | 39132 ft | 492 kts | 148° |
| 2026-05-08 08:03 | 38.64304 | 22.90206 | 39131 ft | 494 kts | 148° |
| 2026-05-08 08:04 | 38.58930 | 22.95700 | 39124 ft | 493 kts | 148° |
| 2026-05-08 08:04 | 38.53584 | 23.01152 | 39133 ft | 496 kts | 148° |
| 2026-05-08 08:05 | 38.48183 | 23.06646 | 39131 ft | 497 kts | 148° |
| 2026-05-08 08:05 | 38.42762 | 23.12154 | 39125 ft | 497 kts | 148° |
| 2026-05-08 08:06 | 38.37351 | 23.17638 | 39134 ft | 499 kts | 148° |
| 2026-05-08 08:06 | 38.31913 | 23.23140 | 39129 ft | 499 kts | 148° |
| 2026-05-08 08:07 | 38.26469 | 23.28636 | 39133 ft | 498 kts | 148° |
| 2026-05-08 08:07 | 38.21045 | 23.34102 | 39138 ft | 498 kts | 148° |
| 2026-05-08 08:08 | 38.15602 | 23.39576 | 39146 ft | 498 kts | 148° |
| 2026-05-08 08:08 | 38.10160 | 23.45038 | 39153 ft | 498 kts | 148° |
| 2026-05-08 08:09 | 38.04739 | 23.50467 | 39158 ft | 498 kts | 148° |
| 2026-05-08 08:09 | 37.99299 | 23.55905 | 39155 ft | 500 kts | 148° |
| 2026-05-08 08:10 | 37.93813 | 23.61378 | 39153 ft | 501 kts | 148° |
| 2026-05-08 08:10 | 37.88320 | 23.66850 | 39157 ft | 501 kts | 148° |
| 2026-05-08 08:11 | 37.82856 | 23.72282 | 39155 ft | 501 kts | 148° |
| 2026-05-08 08:11 | 37.77356 | 23.77738 | 39149 ft | 502 kts | 148° |
| 2026-05-08 08:12 | 37.71832 | 23.83204 | 39156 ft | 504 kts | 148° |
| 2026-05-08 08:12 | 37.66331 | 23.88640 | 39156 ft | 504 kts | 148° |
| 2026-05-08 08:13 | 37.60786 | 23.94110 | 39157 ft | 504 kts | 148° |
| 2026-05-08 08:13 | 37.55263 | 23.99548 | 39155 ft | 504 kts | 148° |
| 2026-05-08 08:14 | 37.49725 | 24.04988 | 39160 ft | 504 kts | 148° |
| 2026-05-08 08:14 | 37.44206 | 24.10398 | 39155 ft | 506 kts | 147° |
| 2026-05-08 08:15 | 37.38631 | 24.15853 | 39161 ft | 508 kts | 147° |
| 2026-05-08 08:15 | 37.33042 | 24.21312 | 39161 ft | 508 kts | 147° |
| 2026-05-08 08:16 | 37.27455 | 24.26760 | 39162 ft | 508 kts | 148° |
| 2026-05-08 08:16 | 37.21890 | 24.32175 | 39162 ft | 508 kts | 148° |
| 2026-05-08 08:17 | 37.16294 | 24.37609 | 39163 ft | 509 kts | 148° |
| 2026-05-08 08:17 | 37.10684 | 24.43046 | 39162 ft | 510 kts | 147° |